This is the latest recevied weather packets stored in our database for station/object HP1COO-13. If no packets are shown the sender has not sent any weather packets the latest 10 day(s).
| Time | Temp. | Humidity | Pressure | Rain* | Wind** | Luminosity | Snow |
|---|---|---|---|---|---|---|---|
| 1777917584 | 31.67° C | 71% | 1008 hPa | 0 mm | - | - | - |
| 1777916951 | 31.67° C | 71% | 1008.3 hPa | 0 mm | - | - | - |
| 1777915685 | 33.33° C | 66% | 1008.8 hPa | 0 mm | - | - | - |
| 1777915052 | 32.78° C | 66% | 1008.7 hPa | 0 mm | - | - | - |
| 1777914419 | 32.78° C | 67% | 1008.8 hPa | 0 mm | - | - | - |
| 1777913786 | 31.67° C | 70% | 1009 hPa | 0 mm | - | - | - |
| 1777913153 | 31.11° C | 72% | 1009.2 hPa | 0 mm | - | - | - |
| 1777912520 | 31.11° C | 71% | 1009.2 hPa | 0 mm | - | - | - |
| 1777911887 | 31.67° C | 69% | 1009.4 hPa | 0 mm | - | - | - |
| 1777911254 | 33.33° C | 66% | 1009.2 hPa | 0 mm | - | - | - |
| 1777910621 | 33.33° C | 65% | 1009.2 hPa | 0 mm | - | - | - |
| 1777909355 | 32.78° C | 66% | 1009.6 hPa | 0 mm | - | - | - |
| 1777908722 | 31.67° C | 68% | 1009.6 hPa | 0 mm | - | - | - |
| 1777908089 | 31.67° C | 68% | 1009.5 hPa | 0 mm | - | - | - |
| 1777907456 | 31.11° C | 70% | 1009.6 hPa | 0 mm | - | - | - |
| 1777906823 | 31.11° C | 70% | 1009.7 hPa | 0 mm | - | - | - |
| 1777906190 | 31.11° C | 70% | 1009.5 hPa | 0 mm | - | - | - |
| 1777905557 | 30° C | 74% | 1009.8 hPa | 0 mm | - | - | - |
| 1777904924 | 30° C | 77% | 1009.6 hPa | 0 mm | - | - | - |
| 1777904291 | 29.44° C | 76% | 1009.7 hPa | 0 mm | - | - | - |
| 1777903658 | 28.89° C | 77% | 1009.6 hPa | 0 mm | - | - | - |
| 1777903025 | 28.89° C | 77% | 1009.4 hPa | 0 mm | - | - | - |
| 1777902392 | 28.89° C | 79% | 1009.6 hPa | 0 mm | - | - | - |
| 1777901759 | 28.89° C | 79% | 1009.5 hPa | 0 mm | - | - | - |
| 1777901126 | 28.33° C | 80% | 1009.7 hPa | 0 mm | - | - | - |
* Rain latest hour (hover to see other rain measurements)
** Current wind speed in m/s (hover to see current wind gust speed)